sensor_id;sensor_type;location;lat;lon;timestamp;P1;durP1;ratioP1;P2;durP2;ratioP2
86116;SDS011;76770;0.000;0.000;2024-02-23T00:02:18;9.73;;;4.93;;
86116;SDS011;76770;0.000;0.000;2024-02-23T00:04:44;7.60;;;4.47;;
86116;SDS011;76770;0.000;0.000;2024-02-23T00:07:10;8.75;;;4.80;;
86116;SDS011;76770;0.000;0.000;2024-02-23T00:09:36;8.10;;;4.57;;
86116;SDS011;76770;0.000;0.000;2024-02-23T00:12:03;9.63;;;4.88;;
86116;SDS011;76770;0.000;0.000;2024-02-23T00:14:29;9.50;;;4.93;;
86116;SDS011;76770;0.000;0.000;2024-02-23T00:16:56;8.35;;;4.57;;
86116;SDS011;76770;0.000;0.000;2024-02-23T00:19:23;8.77;;;4.68;;
86116;SDS011;76770;0.000;0.000;2024-02-23T00:21:50;9.07;;;4.65;;
86116;SDS011;76770;0.000;0.000;2024-02-23T00:24:17;8.37;;;4.60;;
86116;SDS011;76770;0.000;0.000;2024-02-23T00:26:45;9.52;;;4.50;;
86116;SDS011;76770;0.000;0.000;2024-02-23T00:29:11;8.88;;;4.57;;
86116;SDS011;76770;0.000;0.000;2024-02-23T00:31:38;8.47;;;4.40;;
86116;SDS011;76770;0.000;0.000;2024-02-23T00:34:06;8.00;;;4.57;;
86116;SDS011;76770;0.000;0.000;2024-02-23T00:36:35;7.97;;;4.20;;
86116;SDS011;76770;0.000;0.000;2024-02-23T00:39:01;8.75;;;4.43;;
86116;SDS011;76770;0.000;0.000;2024-02-23T00:41:27;6.03;;;4.00;;
86116;SDS011;76770;0.000;0.000;2024-02-23T00:43:53;8.13;;;4.40;;
86116;SDS011;76770;0.000;0.000;2024-02-23T00:46:19;6.80;;;4.20;;
86116;SDS011;76770;0.000;0.000;2024-02-23T00:48:45;8.63;;;4.50;;
86116;SDS011;76770;0.000;0.000;2024-02-23T00:51:12;7.18;;;4.32;;
86116;SDS011;76770;0.000;0.000;2024-02-23T00:53:38;7.97;;;4.30;;
86116;SDS011;76770;0.000;0.000;2024-02-23T00:56:04;6.25;;;3.80;;
86116;SDS011;76770;0.000;0.000;2024-02-23T00:58:30;8.95;;;4.10;;
86116;SDS011;76770;0.000;0.000;2024-02-23T01:00:56;8.32;;;4.05;;
86116;SDS011;76770;0.000;0.000;2024-02-23T01:03:22;6.67;;;3.70;;
86116;SDS011;76770;0.000;0.000;2024-02-23T01:05:48;7.00;;;3.88;;
86116;SDS011;76770;0.000;0.000;2024-02-23T01:08:14;7.25;;;3.80;;
86116;SDS011;76770;0.000;0.000;2024-02-23T01:10:40;6.35;;;3.80;;
86116;SDS011;76770;0.000;0.000;2024-02-23T01:13:06;6.33;;;3.67;;
86116;SDS011;76770;0.000;0.000;2024-02-23T01:15:32;5.93;;;3.40;;
86116;SDS011;76770;0.000;0.000;2024-02-23T01:17:59;6.30;;;3.37;;
86116;SDS011;76770;0.000;0.000;2024-02-23T01:20:25;6.20;;;3.78;;
86116;SDS011;76770;0.000;0.000;2024-02-23T01:22:51;6.22;;;3.42;;
86116;SDS011;76770;0.000;0.000;2024-02-23T01:25:17;6.80;;;3.60;;
86116;SDS011;76770;0.000;0.000;2024-02-23T01:27:43;6.23;;;3.50;;
86116;SDS011;76770;0.000;0.000;2024-02-23T01:30:09;6.90;;;3.60;;
86116;SDS011;76770;0.000;0.000;2024-02-23T01:32:35;5.90;;;3.40;;
86116;SDS011;76770;0.000;0.000;2024-02-23T01:35:03;5.93;;;3.50;;
86116;SDS011;76770;0.000;0.000;2024-02-23T01:37:29;5.75;;;3.20;;
86116;SDS011;76770;0.000;0.000;2024-02-23T01:39:55;6.30;;;3.30;;
86116;SDS011;76770;0.000;0.000;2024-02-23T01:42:21;6.13;;;3.40;;
86116;SDS011;76770;0.000;0.000;2024-02-23T01:44:48;5.47;;;3.17;;
86116;SDS011;76770;0.000;0.000;2024-02-23T01:47:15;5.75;;;3.20;;
86116;SDS011;76770;0.000;0.000;2024-02-23T01:49:41;6.28;;;3.38;;
86116;SDS011;76770;0.000;0.000;2024-02-23T01:52:07;5.53;;;3.22;;
86116;SDS011;76770;0.000;0.000;2024-02-23T01:54:33;6.00;;;3.40;;
86116;SDS011;76770;0.000;0.000;2024-02-23T01:56:59;5.47;;;3.17;;
86116;SDS011;76770;0.000;0.000;2024-02-23T01:59:26;5.78;;;3.10;;
86116;SDS011;76770;0.000;0.000;2024-02-23T02:01:52;6.05;;;3.50;;
86116;SDS011;76770;0.000;0.000;2024-02-23T02:04:19;5.60;;;3.28;;
86116;SDS011;76770;0.000;0.000;2024-02-23T02:06:48;5.30;;;3.07;;
86116;SDS011;76770;0.000;0.000;2024-02-23T02:09:17;4.88;;;3.03;;
86116;SDS011;76770;0.000;0.000;2024-02-23T02:11:49;5.30;;;2.85;;
86116;SDS011;76770;0.000;0.000;2024-02-23T02:14:15;6.38;;;3.22;;
86116;SDS011;76770;0.000;0.000;2024-02-23T02:16:41;5.63;;;3.10;;
86116;SDS011;76770;0.000;0.000;2024-02-23T02:19:09;5.30;;;2.90;;
86116;SDS011;76770;0.000;0.000;2024-02-23T02:21:35;5.20;;;2.97;;
86116;SDS011;76770;0.000;0.000;2024-02-23T02:24:01;4.00;;;2.63;;
86116;SDS011;76770;0.000;0.000;2024-02-23T02:26:28;5.03;;;2.90;;
86116;SDS011;76770;0.000;0.000;2024-02-23T02:28:53;5.25;;;2.83;;
86116;SDS011;76770;0.000;0.000;2024-02-23T02:31:19;4.25;;;2.90;;
86116;SDS011;76770;0.000;0.000;2024-02-23T02:33:45;5.72;;;3.05;;
86116;SDS011;76770;0.000;0.000;2024-02-23T02:36:11;4.85;;;2.90;;
86116;SDS011;76770;0.000;0.000;2024-02-23T02:38:37;4.45;;;2.80;;
86116;SDS011;76770;0.000;0.000;2024-02-23T02:41:04;4.77;;;2.73;;
86116;SDS011;76770;0.000;0.000;2024-02-23T02:43:30;5.13;;;2.75;;
86116;SDS011;76770;0.000;0.000;2024-02-23T02:45:56;4.23;;;2.77;;
86116;SDS011;76770;0.000;0.000;2024-02-23T02:48:22;4.90;;;2.80;;
86116;SDS011;76770;0.000;0.000;2024-02-23T02:50:48;4.90;;;2.95;;
86116;SDS011;76770;0.000;0.000;2024-02-23T02:53:15;4.43;;;2.75;;
86116;SDS011;76770;0.000;0.000;2024-02-23T02:55:41;4.78;;;2.83;;
86116;SDS011;76770;0.000;0.000;2024-02-23T02:58:07;3.95;;;2.60;;
86116;SDS011;76770;0.000;0.000;2024-02-23T03:00:33;3.92;;;2.50;;
86116;SDS011;76770;0.000;0.000;2024-02-23T03:02:59;3.95;;;2.50;;
86116;SDS011;76770;0.000;0.000;2024-02-23T03:05:25;4.38;;;2.67;;
86116;SDS011;76770;0.000;0.000;2024-02-23T03:07:51;4.32;;;2.70;;
86116;SDS011;76770;0.000;0.000;2024-02-23T03:10:17;3.92;;;2.50;;
86116;SDS011;76770;0.000;0.000;2024-02-23T03:12:43;4.07;;;2.50;;
86116;SDS011;76770;0.000;0.000;2024-02-23T03:15:09;3.67;;;2.47;;
86116;SDS011;76770;0.000;0.000;2024-02-23T03:17:35;3.65;;;2.40;;
86116;SDS011;76770;0.000;0.000;2024-02-23T03:20:02;3.65;;;2.40;;
86116;SDS011;76770;0.000;0.000;2024-02-23T03:22:30;4.10;;;2.47;;
86116;SDS011;76770;0.000;0.000;2024-02-23T03:24:56;4.15;;;2.50;;
86116;SDS011;76770;0.000;0.000;2024-02-23T03:27:27;3.97;;;2.50;;
86116;SDS011;76770;0.000;0.000;2024-02-23T03:29:53;3.53;;;2.40;;
86116;SDS011;76770;0.000;0.000;2024-02-23T03:32:19;3.53;;;2.33;;
86116;SDS011;76770;0.000;0.000;2024-02-23T03:34:45;4.25;;;2.50;;
86116;SDS011;76770;0.000;0.000;2024-02-23T03:37:11;3.53;;;2.30;;
86116;SDS011;76770;0.000;0.000;2024-02-23T03:39:37;3.78;;;2.33;;
86116;SDS011;76770;0.000;0.000;2024-02-23T03:42:03;3.78;;;2.40;;
86116;SDS011;76770;0.000;0.000;2024-02-23T03:44:29;3.92;;;2.40;;
86116;SDS011;76770;0.000;0.000;2024-02-23T03:46:56;4.00;;;2.40;;
86116;SDS011;76770;0.000;0.000;2024-02-23T03:49:22;3.47;;;2.17;;
86116;SDS011;76770;0.000;0.000;2024-02-23T03:51:48;3.15;;;2.10;;
86116;SDS011;76770;0.000;0.000;2024-02-23T03:54:14;2.87;;;2.00;;
86116;SDS011;76770;0.000;0.000;2024-02-23T03:56:41;4.13;;;2.47;;
86116;SDS011;76770;0.000;0.000;2024-02-23T03:59:07;3.50;;;2.08;;
86116;SDS011;76770;0.000;0.000;2024-02-23T04:01:37;3.55;;;2.10;;
86116;SDS011;76770;0.000;0.000;2024-02-23T04:04:03;3.25;;;2.17;;
86116;SDS011;76770;0.000;0.000;2024-02-23T04:06:29;3.67;;;2.10;;
86116;SDS011;76770;0.000;0.000;2024-02-23T04:08:55;3.22;;;2.10;;
86116;SDS011;76770;0.000;0.000;2024-02-23T04:11:21;3.42;;;2.17;;
86116;SDS011;76770;0.000;0.000;2024-02-23T04:13:47;3.38;;;2.00;;
86116;SDS011;76770;0.000;0.000;2024-02-23T04:16:13;4.00;;;2.10;;
86116;SDS011;76770;0.000;0.000;2024-02-23T04:18:39;3.33;;;2.17;;
86116;SDS011;76770;0.000;0.000;2024-02-23T04:21:05;3.35;;;2.10;;
86116;SDS011;76770;0.000;0.000;2024-02-23T04:23:31;3.10;;;2.20;;
86116;SDS011;76770;0.000;0.000;2024-02-23T04:25:58;3.10;;;2.13;;
86116;SDS011;76770;0.000;0.000;2024-02-23T04:28:24;3.40;;;2.10;;
86116;SDS011;76770;0.000;0.000;2024-02-23T04:30:51;3.10;;;2.00;;
86116;SDS011;76770;0.000;0.000;2024-02-23T04:33:17;3.55;;;2.13;;
86116;SDS011;76770;0.000;0.000;2024-02-23T04:35:43;3.22;;;2.20;;
86116;SDS011;76770;0.000;0.000;2024-02-23T04:38:09;3.30;;;2.20;;
86116;SDS011;76770;0.000;0.000;2024-02-23T04:40:35;3.38;;;2.15;;
86116;SDS011;76770;0.000;0.000;2024-02-23T04:43:01;3.05;;;1.98;;
86116;SDS011;76770;0.000;0.000;2024-02-23T04:45:27;3.20;;;2.20;;
86116;SDS011;76770;0.000;0.000;2024-02-23T04:47:53;3.70;;;2.03;;
86116;SDS011;76770;0.000;0.000;2024-02-23T04:50:19;3.13;;;2.08;;
86116;SDS011;76770;0.000;0.000;2024-02-23T04:52:46;3.63;;;2.25;;
86116;SDS011;76770;0.000;0.000;2024-02-23T04:55:12;3.55;;;2.00;;
86116;SDS011;76770;0.000;0.000;2024-02-23T04:57:38;3.30;;;2.00;;
86116;SDS011;76770;0.000;0.000;2024-02-23T05:00:05;2.95;;;1.90;;
86116;SDS011;76770;0.000;0.000;2024-02-23T05:02:32;3.28;;;2.00;;
86116;SDS011;76770;0.000;0.000;2024-02-23T05:05:01;2.40;;;1.80;;
86116;SDS011;76770;0.000;0.000;2024-02-23T05:07:29;3.10;;;1.80;;
86116;SDS011;76770;0.000;0.000;2024-02-23T05:09:55;2.65;;;1.75;;
86116;SDS011;76770;0.000;0.000;2024-02-23T05:12:21;2.95;;;1.90;;
86116;SDS011;76770;0.000;0.000;2024-02-23T05:14:47;3.03;;;2.00;;
86116;SDS011;76770;0.000;0.000;2024-02-23T05:17:13;3.53;;;1.83;;
86116;SDS011;76770;0.000;0.000;2024-02-23T05:19:39;3.20;;;1.80;;
86116;SDS011;76770;0.000;0.000;2024-02-23T05:22:05;3.85;;;2.15;;
86116;SDS011;76770;0.000;0.000;2024-02-23T05:24:31;3.37;;;1.97;;
86116;SDS011;76770;0.000;0.000;2024-02-23T05:26:58;3.25;;;1.90;;
86116;SDS011;76770;0.000;0.000;2024-02-23T05:29:27;2.60;;;1.85;;
86116;SDS011;76770;0.000;0.000;2024-02-23T05:31:53;3.30;;;1.92;;
86116;SDS011;76770;0.000;0.000;2024-02-23T05:34:19;3.25;;;1.90;;
86116;SDS011;76770;0.000;0.000;2024-02-23T05:36:45;3.53;;;1.70;;
86116;SDS011;76770;0.000;0.000;2024-02-23T05:39:11;6.40;;;1.83;;
86116;SDS011;76770;0.000;0.000;2024-02-23T05:41:38;11.40;;;2.00;;
86116;SDS011;76770;0.000;0.000;2024-02-23T05:44:04;4.30;;;1.88;;
86116;SDS011;76770;0.000;0.000;2024-02-23T05:46:34;4.45;;;2.00;;
86116;SDS011;76770;0.000;0.000;2024-02-23T05:49:01;7.40;;;2.30;;
86116;SDS011;76770;0.000;0.000;2024-02-23T05:51:28;6.00;;;2.00;;
86116;SDS011;76770;0.000;0.000;2024-02-23T05:53:54;4.85;;;2.10;;
86116;SDS011;76770;0.000;0.000;2024-02-23T05:56:20;4.47;;;2.00;;
86116;SDS011;76770;0.000;0.000;2024-02-23T05:58:47;5.05;;;2.10;;
86116;SDS011;76770;0.000;0.000;2024-02-23T06:01:13;4.53;;;2.15;;
86116;SDS011;76770;0.000;0.000;2024-02-23T06:03:39;3.28;;;1.90;;
86116;SDS011;76770;0.000;0.000;2024-02-23T06:06:08;4.00;;;2.10;;
86116;SDS011;76770;0.000;0.000;2024-02-23T06:08:35;3.30;;;1.92;;
86116;SDS011;76770;0.000;0.000;2024-02-23T06:11:01;2.75;;;1.88;;
86116;SDS011;76770;0.000;0.000;2024-02-23T06:13:29;4.57;;;2.05;;
86116;SDS011;76770;0.000;0.000;2024-02-23T06:15:55;3.60;;;2.03;;
86116;SDS011;76770;0.000;0.000;2024-02-23T06:18:21;3.13;;;1.80;;
86116;SDS011;76770;0.000;0.000;2024-02-23T06:20:47;3.30;;;1.92;;
86116;SDS011;76770;0.000;0.000;2024-02-23T06:23:13;3.30;;;1.80;;
86116;SDS011;76770;0.000;0.000;2024-02-23T06:25:39;3.30;;;1.93;;
86116;SDS011;76770;0.000;0.000;2024-02-23T06:28:05;3.00;;;1.83;;
86116;SDS011;76770;0.000;0.000;2024-02-23T06:30:31;2.97;;;1.90;;
86116;SDS011;76770;0.000;0.000;2024-02-23T06:32:57;3.95;;;2.03;;
86116;SDS011;76770;0.000;0.000;2024-02-23T06:35:23;3.53;;;2.10;;
86116;SDS011;76770;0.000;0.000;2024-02-23T06:37:49;2.78;;;1.80;;
86116;SDS011;76770;0.000;0.000;2024-02-23T06:40:15;2.95;;;1.80;;
86116;SDS011;76770;0.000;0.000;2024-02-23T06:42:43;3.33;;;2.03;;
86116;SDS011;76770;0.000;0.000;2024-02-23T06:45:09;3.20;;;1.92;;
86116;SDS011;76770;0.000;0.000;2024-02-23T06:47:35;2.70;;;1.70;;
86116;SDS011;76770;0.000;0.000;2024-02-23T06:50:01;3.73;;;1.90;;
86116;SDS011;76770;0.000;0.000;2024-02-23T06:52:28;2.90;;;1.85;;
86116;SDS011;76770;0.000;0.000;2024-02-23T06:54:54;4.10;;;1.85;;
86116;SDS011;76770;0.000;0.000;2024-02-23T06:57:20;3.03;;;1.83;;
86116;SDS011;76770;0.000;0.000;2024-02-23T06:59:47;3.03;;;1.83;;
86116;SDS011;76770;0.000;0.000;2024-02-23T07:02:14;3.28;;;1.65;;
86116;SDS011;76770;0.000;0.000;2024-02-23T07:04:40;2.90;;;1.60;;
86116;SDS011;76770;0.000;0.000;2024-02-23T07:07:06;3.22;;;1.80;;
86116;SDS011;76770;0.000;0.000;2024-02-23T07:09:33;2.67;;;1.60;;
86116;SDS011;76770;0.000;0.000;2024-02-23T07:11:59;2.63;;;1.52;;
86116;SDS011;76770;0.000;0.000;2024-02-23T07:14:26;2.53;;;1.67;;
86116;SDS011;76770;0.000;0.000;2024-02-23T07:16:52;2.53;;;1.50;;
86116;SDS011;76770;0.000;0.000;2024-02-23T07:19:18;3.20;;;1.60;;
86116;SDS011;76770;0.000;0.000;2024-02-23T07:21:45;2.83;;;1.70;;
86116;SDS011;76770;0.000;0.000;2024-02-23T07:24:11;2.78;;;1.60;;
86116;SDS011;76770;0.000;0.000;2024-02-23T07:26:37;3.40;;;1.50;;
86116;SDS011;76770;0.000;0.000;2024-02-23T07:29:03;2.65;;;1.50;;
86116;SDS011;76770;0.000;0.000;2024-02-23T07:31:29;2.55;;;1.45;;
86116;SDS011;76770;0.000;0.000;2024-02-23T07:33:55;2.80;;;1.60;;
86116;SDS011;76770;0.000;0.000;2024-02-23T07:36:21;2.85;;;1.58;;
86116;SDS011;76770;0.000;0.000;2024-02-23T07:38:47;2.38;;;1.50;;
86116;SDS011;76770;0.000;0.000;2024-02-23T07:41:14;2.30;;;1.45;;
86116;SDS011;76770;0.000;0.000;2024-02-23T07:43:42;2.42;;;1.40;;
86116;SDS011;76770;0.000;0.000;2024-02-23T07:46:08;2.30;;;1.43;;
86116;SDS011;76770;0.000;0.000;2024-02-23T07:48:35;3.13;;;1.60;;
86116;SDS011;76770;0.000;0.000;2024-02-23T07:51:01;2.70;;;1.52;;
86116;SDS011;76770;0.000;0.000;2024-02-23T07:53:28;2.60;;;1.35;;
86116;SDS011;76770;0.000;0.000;2024-02-23T07:55:54;2.53;;;1.40;;
86116;SDS011;76770;0.000;0.000;2024-02-23T07:58:19;2.42;;;1.50;;
86116;SDS011;76770;0.000;0.000;2024-02-23T08:00:46;2.20;;;1.40;;
86116;SDS011;76770;0.000;0.000;2024-02-23T08:03:12;2.50;;;1.40;;
86116;SDS011;76770;0.000;0.000;2024-02-23T08:05:39;2.33;;;1.48;;
86116;SDS011;76770;0.000;0.000;2024-02-23T08:08:05;2.20;;;1.40;;
86116;SDS011;76770;0.000;0.000;2024-02-23T08:10:31;2.53;;;1.33;;
86116;SDS011;76770;0.000;0.000;2024-02-23T08:12:58;2.40;;;1.40;;
86116;SDS011;76770;0.000;0.000;2024-02-23T08:15:24;2.38;;;1.50;;
86116;SDS011;76770;0.000;0.000;2024-02-23T08:17:50;2.30;;;1.40;;
86116;SDS011;76770;0.000;0.000;2024-02-23T08:20:16;2.85;;;1.60;;
86116;SDS011;76770;0.000;0.000;2024-02-23T08:22:42;3.30;;;1.30;;
86116;SDS011;76770;0.000;0.000;2024-02-23T08:25:09;2.38;;;1.40;;
86116;SDS011;76770;0.000;0.000;2024-02-23T08:27:35;2.40;;;1.60;;
86116;SDS011;76770;0.000;0.000;2024-02-23T08:30:01;3.20;;;1.70;;
86116;SDS011;76770;0.000;0.000;2024-02-23T08:32:27;2.50;;;1.63;;
86116;SDS011;76770;0.000;0.000;2024-02-23T08:34:53;2.53;;;1.60;;
86116;SDS011;76770;0.000;0.000;2024-02-23T08:37:24;2.20;;;1.40;;
86116;SDS011;76770;0.000;0.000;2024-02-23T08:39:50;2.25;;;1.50;;
86116;SDS011;76770;0.000;0.000;2024-02-23T08:42:16;2.43;;;1.50;;
86116;SDS011;76770;0.000;0.000;2024-02-23T08:44:42;2.45;;;1.50;;
86116;SDS011;76770;0.000;0.000;2024-02-23T08:47:08;2.00;;;1.33;;
86116;SDS011;76770;0.000;0.000;2024-02-23T08:49:34;2.50;;;1.43;;
86116;SDS011;76770;0.000;0.000;2024-02-23T08:52:00;2.30;;;1.40;;
86116;SDS011;76770;0.000;0.000;2024-02-23T08:54:27;2.10;;;1.40;;
86116;SDS011;76770;0.000;0.000;2024-02-23T08:56:53;2.13;;;1.38;;
86116;SDS011;76770;0.000;0.000;2024-02-23T08:59:19;2.30;;;1.37;;
86116;SDS011;76770;0.000;0.000;2024-02-23T09:01:45;2.40;;;1.30;;
86116;SDS011;76770;0.000;0.000;2024-02-23T09:04:12;2.40;;;1.40;;
86116;SDS011;76770;0.000;0.000;2024-02-23T09:06:38;2.22;;;1.30;;
86116;SDS011;76770;0.000;0.000;2024-02-23T09:09:04;2.33;;;1.50;;
86116;SDS011;76770;0.000;0.000;2024-02-23T09:11:30;1.88;;;1.30;;
86116;SDS011;76770;0.000;0.000;2024-02-23T09:13:56;2.23;;;1.50;;
86116;SDS011;76770;0.000;0.000;2024-02-23T09:16:21;2.10;;;1.30;;
86116;SDS011;76770;0.000;0.000;2024-02-23T09:18:49;2.23;;;1.30;;
86116;SDS011;76770;0.000;0.000;2024-02-23T09:21:16;2.38;;;1.30;;
86116;SDS011;76770;0.000;0.000;2024-02-23T09:23:42;2.42;;;1.42;;
86116;SDS011;76770;0.000;0.000;2024-02-23T09:26:11;2.10;;;1.40;;
86116;SDS011;76770;0.000;0.000;2024-02-23T09:28:37;2.45;;;1.50;;
86116;SDS011;76770;0.000;0.000;2024-02-23T09:31:05;2.38;;;1.50;;
86116;SDS011;76770;0.000;0.000;2024-02-23T09:33:31;2.33;;;1.40;;
86116;SDS011;76770;0.000;0.000;2024-02-23T09:35:57;1.80;;;1.30;;
86116;SDS011;76770;0.000;0.000;2024-02-23T09:38:24;1.88;;;1.20;;
86116;SDS011;76770;0.000;0.000;2024-02-23T09:40:53;2.30;;;1.27;;
86116;SDS011;76770;0.000;0.000;2024-02-23T09:43:20;2.00;;;1.30;;
86116;SDS011;76770;0.000;0.000;2024-02-23T09:45:50;1.70;;;1.20;;
86116;SDS011;76770;0.000;0.000;2024-02-23T09:48:17;2.28;;;1.40;;
86116;SDS011;76770;0.000;0.000;2024-02-23T09:50:44;2.03;;;1.40;;
86116;SDS011;76770;0.000;0.000;2024-02-23T09:53:11;2.33;;;1.30;;
86116;SDS011;76770;0.000;0.000;2024-02-23T09:55:37;2.25;;;1.40;;
86116;SDS011;76770;0.000;0.000;2024-02-23T09:58:03;2.20;;;1.30;;
86116;SDS011;76770;0.000;0.000;2024-02-23T10:00:29;1.70;;;1.30;;
86116;SDS011;76770;0.000;0.000;2024-02-23T10:02:55;1.98;;;1.30;;
86116;SDS011;76770;0.000;0.000;2024-02-23T10:05:28;2.22;;;1.30;;
86116;SDS011;76770;0.000;0.000;2024-02-23T10:07:55;1.98;;;1.33;;
86116;SDS011;76770;0.000;0.000;2024-02-23T10:10:32;1.97;;;1.30;;
86116;SDS011;76770;0.000;0.000;2024-02-23T10:12:59;2.30;;;1.30;;
86116;SDS011;76770;0.000;0.000;2024-02-23T10:15:26;2.28;;;1.40;;
86116;SDS011;76770;0.000;0.000;2024-02-23T10:17:52;1.98;;;1.30;;
86116;SDS011;76770;0.000;0.000;2024-02-23T10:20:19;2.47;;;1.40;;
86116;SDS011;76770;0.000;0.000;2024-02-23T10:22:45;2.10;;;1.30;;
86116;SDS011;76770;0.000;0.000;2024-02-23T10:25:11;1.88;;;1.20;;
86116;SDS011;76770;0.000;0.000;2024-02-23T10:27:37;2.13;;;1.30;;
86116;SDS011;76770;0.000;0.000;2024-02-23T10:30:03;1.93;;;1.20;;
86116;SDS011;76770;0.000;0.000;2024-02-23T10:32:30;1.97;;;1.20;;
86116;SDS011;76770;0.000;0.000;2024-02-23T10:34:56;1.60;;;1.10;;
86116;SDS011;76770;0.000;0.000;2024-02-23T10:37:29;1.75;;;1.20;;
86116;SDS011;76770;0.000;0.000;2024-02-23T10:39:57;2.00;;;1.20;;
86116;SDS011;76770;0.000;0.000;2024-02-23T10:42:24;1.88;;;1.20;;
86116;SDS011;76770;0.000;0.000;2024-02-23T10:44:54;1.83;;;1.20;;
86116;SDS011;76770;0.000;0.000;2024-02-23T10:47:21;2.20;;;1.25;;
86116;SDS011;76770;0.000;0.000;2024-02-23T10:49:47;1.90;;;1.27;;
86116;SDS011;76770;0.000;0.000;2024-02-23T10:52:13;1.73;;;1.05;;
86116;SDS011;76770;0.000;0.000;2024-02-23T10:54:42;1.75;;;1.20;;
86116;SDS011;76770;0.000;0.000;2024-02-23T10:57:10;1.65;;;1.10;;
86116;SDS011;76770;0.000;0.000;2024-02-23T10:59:36;1.75;;;1.10;;
86116;SDS011;76770;0.000;0.000;2024-02-23T11:02:02;1.77;;;1.20;;
86116;SDS011;76770;0.000;0.000;2024-02-23T11:04:29;2.10;;;1.20;;
86116;SDS011;76770;0.000;0.000;2024-02-23T11:06:55;1.70;;;1.15;;
86116;SDS011;76770;0.000;0.000;2024-02-23T11:09:23;1.85;;;1.20;;
86116;SDS011;76770;0.000;0.000;2024-02-23T11:11:56;1.90;;;1.10;;
86116;SDS011;76770;0.000;0.000;2024-02-23T11:14:29;1.70;;;1.07;;
86116;SDS011;76770;0.000;0.000;2024-02-23T11:16:56;1.45;;;1.00;;
86116;SDS011;76770;0.000;0.000;2024-02-23T11:19:22;1.45;;;1.05;;
86116;SDS011;76770;0.000;0.000;2024-02-23T11:21:57;1.53;;;1.10;;
86116;SDS011;76770;0.000;0.000;2024-02-23T11:24:25;1.37;;;1.00;;
86116;SDS011;76770;0.000;0.000;2024-02-23T11:26:55;1.63;;;1.00;;
86116;SDS011;76770;0.000;0.000;2024-02-23T11:29:21;1.30;;;0.90;;
86116;SDS011;76770;0.000;0.000;2024-02-23T11:31:47;1.60;;;1.10;;
86116;SDS011;76770;0.000;0.000;2024-02-23T11:34:13;1.70;;;1.02;;
86116;SDS011;76770;0.000;0.000;2024-02-23T11:36:47;1.50;;;0.90;;
86116;SDS011;76770;0.000;0.000;2024-02-23T11:39:17;1.48;;;1.00;;
86116;SDS011;76770;0.000;0.000;2024-02-23T11:41:43;1.40;;;1.00;;
86116;SDS011;76770;0.000;0.000;2024-02-23T11:44:10;1.43;;;1.00;;
86116;SDS011;76770;0.000;0.000;2024-02-23T11:46:38;1.70;;;1.00;;
86116;SDS011;76770;0.000;0.000;2024-02-23T11:49:04;1.50;;;1.00;;
86116;SDS011;76770;0.000;0.000;2024-02-23T11:51:30;1.15;;;0.90;;
86116;SDS011;76770;0.000;0.000;2024-02-23T11:53:56;1.30;;;0.93;;
86116;SDS011;76770;0.000;0.000;2024-02-23T11:56:23;1.45;;;1.00;;
86116;SDS011;76770;0.000;0.000;2024-02-23T11:58:49;1.65;;;1.00;;
86116;SDS011;76770;0.000;0.000;2024-02-23T12:01:15;1.87;;;1.00;;
86116;SDS011;76770;0.000;0.000;2024-02-23T12:03:41;1.58;;;0.98;;
86116;SDS011;76770;0.000;0.000;2024-02-23T12:06:10;1.43;;;1.00;;
86116;SDS011;76770;0.000;0.000;2024-02-23T12:08:36;1.30;;;1.00;;
86116;SDS011;76770;0.000;0.000;2024-02-23T12:11:06;1.40;;;1.00;;
86116;SDS011;76770;0.000;0.000;2024-02-23T12:13:33;1.15;;;0.90;;
86116;SDS011;76770;0.000;0.000;2024-02-23T12:16:00;1.60;;;1.00;;
86116;SDS011;76770;0.000;0.000;2024-02-23T12:18:26;1.20;;;0.90;;
86116;SDS011;76770;0.000;0.000;2024-02-23T12:20:56;1.40;;;0.90;;
86116;SDS011;76770;0.000;0.000;2024-02-23T12:23:24;1.40;;;0.90;;
86116;SDS011;76770;0.000;0.000;2024-02-23T12:25:53;1.40;;;0.90;;
86116;SDS011;76770;0.000;0.000;2024-02-23T12:28:20;1.75;;;0.90;;
86116;SDS011;76770;0.000;0.000;2024-02-23T12:30:46;1.23;;;0.90;;
86116;SDS011;76770;0.000;0.000;2024-02-23T12:33:12;1.33;;;0.90;;
86116;SDS011;76770;0.000;0.000;2024-02-23T12:35:41;1.52;;;1.00;;
86116;SDS011;76770;0.000;0.000;2024-02-23T12:38:07;1.40;;;0.90;;
86116;SDS011;76770;0.000;0.000;2024-02-23T12:40:34;1.30;;;0.90;;
86116;SDS011;76770;0.000;0.000;2024-02-23T12:43:00;1.13;;;0.82;;
86116;SDS011;76770;0.000;0.000;2024-02-23T12:45:26;1.70;;;0.80;;
86116;SDS011;76770;0.000;0.000;2024-02-23T12:47:52;1.23;;;0.90;;
86116;SDS011;76770;0.000;0.000;2024-02-23T12:50:18;1.30;;;0.90;;
86116;SDS011;76770;0.000;0.000;2024-02-23T12:52:44;1.00;;;0.80;;
86116;SDS011;76770;0.000;0.000;2024-02-23T12:55:11;1.25;;;0.77;;
86116;SDS011;76770;0.000;0.000;2024-02-23T12:57:37;1.23;;;0.80;;
86116;SDS011;76770;0.000;0.000;2024-02-23T13:00:03;0.88;;;0.80;;
86116;SDS011;76770;0.000;0.000;2024-02-23T13:02:30;1.48;;;0.90;;
86116;SDS011;76770;0.000;0.000;2024-02-23T13:04:56;1.27;;;0.90;;
86116;SDS011;76770;0.000;0.000;2024-02-23T13:07:22;1.20;;;0.90;;
86116;SDS011;76770;0.000;0.000;2024-02-23T13:09:48;1.10;;;0.80;;
86116;SDS011;76770;0.000;0.000;2024-02-23T13:12:14;1.13;;;0.75;;
86116;SDS011;76770;0.000;0.000;2024-02-23T13:14:40;1.35;;;0.80;;
86116;SDS011;76770;0.000;0.000;2024-02-23T13:17:06;1.10;;;0.70;;
86116;SDS011;76770;0.000;0.000;2024-02-23T13:19:32;1.30;;;0.80;;
86116;SDS011;76770;0.000;0.000;2024-02-23T13:21:58;1.08;;;0.70;;
86116;SDS011;76770;0.000;0.000;2024-02-23T13:24:26;1.10;;;0.80;;
86116;SDS011;76770;0.000;0.000;2024-02-23T13:26:52;1.13;;;0.80;;
86116;SDS011;76770;0.000;0.000;2024-02-23T13:29:18;1.00;;;0.73;;
86116;SDS011;76770;0.000;0.000;2024-02-23T13:31:44;1.30;;;0.80;;
86116;SDS011;76770;0.000;0.000;2024-02-23T13:34:10;1.10;;;0.77;;
86116;SDS011;76770;0.000;0.000;2024-02-23T13:36:37;0.60;;;0.60;;
86116;SDS011;76770;0.000;0.000;2024-02-23T13:39:04;1.30;;;0.80;;
86116;SDS011;76770;0.000;0.000;2024-02-23T13:41:30;0.80;;;0.70;;
86116;SDS011;76770;0.000;0.000;2024-02-23T13:43:56;0.77;;;0.70;;
86116;SDS011;76770;0.000;0.000;2024-02-23T13:46:22;1.38;;;0.80;;
86116;SDS011;76770;0.000;0.000;2024-02-23T13:48:49;0.90;;;0.70;;
86116;SDS011;76770;0.000;0.000;2024-02-23T13:51:27;1.85;;;0.80;;
86116;SDS011;76770;0.000;0.000;2024-02-23T13:53:53;1.50;;;0.90;;
86116;SDS011;76770;0.000;0.000;2024-02-23T13:56:19;3.03;;;0.90;;
86116;SDS011;76770;0.000;0.000;2024-02-23T13:58:45;3.20;;;0.90;;
86116;SDS011;76770;0.000;0.000;2024-02-23T14:01:13;1.58;;;0.80;;
86116;SDS011;76770;0.000;0.000;2024-02-23T14:03:39;2.40;;;0.80;;
86116;SDS011;76770;0.000;0.000;2024-02-23T14:06:05;1.05;;;0.70;;
86116;SDS011;76770;0.000;0.000;2024-02-23T14:08:31;1.33;;;0.80;;
86116;SDS011;76770;0.000;0.000;2024-02-23T14:10:59;1.20;;;0.80;;
86116;SDS011;76770;0.000;0.000;2024-02-23T14:13:25;2.15;;;0.85;;
86116;SDS011;76770;0.000;0.000;2024-02-23T14:15:51;1.80;;;1.00;;
86116;SDS011;76770;0.000;0.000;2024-02-23T14:18:18;1.85;;;0.90;;
86116;SDS011;76770;0.000;0.000;2024-02-23T14:20:44;1.47;;;0.90;;
86116;SDS011;76770;0.000;0.000;2024-02-23T14:23:10;2.05;;;0.93;;
86116;SDS011;76770;0.000;0.000;2024-02-23T14:25:36;1.67;;;0.80;;
86116;SDS011;76770;0.000;0.000;2024-02-23T14:28:03;1.20;;;0.80;;
86116;SDS011;76770;0.000;0.000;2024-02-23T14:30:29;2.00;;;0.82;;
86116;SDS011;76770;0.000;0.000;2024-02-23T14:32:55;1.10;;;0.70;;
86116;SDS011;76770;0.000;0.000;2024-02-23T14:35:21;1.75;;;1.00;;
86116;SDS011;76770;0.000;0.000;2024-02-23T14:37:47;2.85;;;0.80;;
86116;SDS011;76770;0.000;0.000;2024-02-23T14:40:13;1.30;;;0.80;;
86116;SDS011;76770;0.000;0.000;2024-02-23T14:42:40;1.60;;;0.90;;
86116;SDS011;76770;0.000;0.000;2024-02-23T14:45:06;2.13;;;1.00;;
86116;SDS011;76770;0.000;0.000;2024-02-23T14:47:32;3.55;;;0.90;;
86116;SDS011;76770;0.000;0.000;2024-02-23T14:49:59;1.17;;;0.90;;
86116;SDS011;76770;0.000;0.000;2024-02-23T14:52:25;1.48;;;0.75;;
86116;SDS011;76770;0.000;0.000;2024-02-23T14:54:51;2.70;;;0.90;;
86116;SDS011;76770;0.000;0.000;2024-02-23T14:57:19;2.27;;;0.90;;